Time;durP1;ratioP1;P1;durP2;ratioP2;P2;SDS_P1;SDS_P2;PMS_P1;PMS_P2;Temp;Humidity;BMP_temperature;BMP_pressure;BME280_temperature;BME280_humidity;BME280_pressure;Samples;Min_cycle;Max_cycle;Signal;HPM_P1;HPM_P2
2022/10/13 00:00:38;;;;;;;0.00;0.00;;;10.20;99.90;;;;;;5034352;28;20637;-74
2022/10/13 00:03:06;;;;;;;0.00;0.00;;;10.10;99.90;;;;;;5034421;28;20198;-74
2022/10/13 00:05:34;;;;;;;0.00;0.00;;;10.20;99.90;;;;;;5033744;28;20503;-74
2022/10/13 00:08:02;;;;;;;0.00;0.00;;;10.20;99.90;;;;;;5033933;28;20225;-74
2022/10/13 00:10:31;;;;;;;0.00;0.00;;;10.10;99.90;;;;;;5034460;28;20453;-74
2022/10/13 00:12:59;;;;;;;0.00;0.00;;;10.20;99.90;;;;;;5033961;28;20453;-75
2022/10/13 00:15:26;;;;;;;0.00;0.00;;;10.10;99.90;;;;;;5033753;28;20202;-75
2022/10/13 00:17:54;;;;;;;0.00;0.00;;;10.10;99.90;;;;;;5033618;28;20499;-75
2022/10/13 00:20:22;;;;;;;0.00;0.00;;;10.10;99.90;;;;;;5033422;28;20234;-75
2022/10/13 00:22:49;;;;;;;0.00;0.00;;;10.10;99.90;;;;;;5033738;28;20852;-74
2022/10/13 00:25:17;;;;;;;0.00;0.00;;;10.10;99.90;;;;;;5033190;28;20437;-75
2022/10/13 00:27:46;;;;;;;0.00;0.00;;;10.10;99.90;;;;;;5033388;28;20975;-74
2022/10/13 00:30:14;;;;;;;0.00;0.00;;;10.10;99.90;;;;;;5033566;28;20515;-75
2022/10/13 00:32:42;;;;;;;0.00;0.00;;;10.10;99.90;;;;;;5033489;28;20448;-75
2022/10/13 00:35:10;;;;;;;0.00;0.00;;;10.10;99.90;;;;;;5033524;28;20449;-75
2022/10/13 00:37:38;;;;;;;0.00;0.00;;;10.10;99.90;;;;;;5033020;28;20433;-74
2022/10/13 00:40:07;;;;;;;0.00;0.00;;;10.10;99.90;;;;;;5033219;28;20226;-74
2022/10/13 00:42:35;;;;;;;0.00;0.00;;;10.20;99.90;;;;;;5033761;28;20229;-75
2022/10/13 00:45:19;;;;;;;0.00;0.00;;;10.20;99.90;;;;;;5033371;28;20499;-75
2022/10/13 00:47:50;;;;;;;0.00;0.00;;;10.20;99.90;;;;;;5033539;28;20491;-74
2022/10/13 00:50:22;;;;;;;0.00;0.00;;;10.10;99.90;;;;;;5033186;28;20218;-74
2022/10/13 00:52:52;;;;;;;0.00;0.00;;;10.20;99.90;;;;;;5043187;28;20503;-74
2022/10/13 00:55:24;;;;;;;0.00;0.00;;;10.20;99.90;;;;;;5035195;28;20994;-74
2022/10/13 00:57:54;;;;;;;0.00;0.00;;;10.10;99.90;;;;;;5033080;28;21174;-75
2022/10/13 01:00:24;;;;;;;0.00;0.00;;;10.10;99.90;;;;;;5032983;28;20477;-74
2022/10/13 01:02:52;;;;;;;0.00;0.00;;;10.10;99.90;;;;;;5032819;28;20488;-74
2022/10/13 01:05:21;;;;;;;0.00;0.00;;;10.10;99.90;;;;;;5032492;28;20547;-74
2022/10/13 01:07:50;;;;;;;0.00;0.00;;;10.00;99.90;;;;;;5032667;28;20681;-74
2022/10/13 01:10:26;;;;;;;0.00;0.00;;;9.90;99.90;;;;;;5032867;28;20583;-74
2022/10/13 01:13:01;;;;;;;0.00;0.00;;;9.90;99.90;;;;;;5032985;28;20436;-75
2022/10/13 01:15:34;;;;;;;0.00;0.00;;;9.80;99.90;;;;;;5033044;28;20267;-75
2022/10/13 01:18:13;;;;;;;0.00;0.00;;;9.70;99.90;;;;;;5032591;28;20936;-75
2022/10/13 01:21:05;;;;;;;0.00;0.00;;;9.60;99.90;;;;;;5032356;28;20499;-74
2022/10/13 01:23:54;;;;;;;0.00;0.00;;;9.50;99.90;;;;;;5029305;28;20262;-75
2022/10/13 01:26:54;;;;;;;0.00;0.00;;;9.40;99.90;;;;;;5032763;28;20206;-75
2022/10/13 01:30:01;;;;;;;0.00;0.00;;;9.30;99.90;;;;;;5032571;28;20194;-75
2022/10/13 01:32:35;;;;;;;0.00;0.00;;;9.20;99.90;;;;;;5032871;28;20202;-75
2022/10/13 01:35:08;;;;;;;0.00;0.00;;;9.00;99.90;;;;;;5032610;28;20202;-75
2022/10/13 01:37:44;;;;;;;0.00;0.00;;;8.90;99.90;;;;;;5032540;28;20268;-74
2022/10/13 01:40:18;;;;;;;0.00;0.00;;;8.80;99.90;;;;;;5032596;28;20279;-74
2022/10/13 01:42:53;;;;;;;0.00;0.00;;;8.80;99.90;;;;;;5032608;28;20685;-75
2022/10/13 01:45:29;;;;;;;0.00;0.00;;;8.70;99.90;;;;;;5033140;28;20209;-75
2022/10/13 01:47:59;;;;;;;0.00;0.00;;;8.60;99.90;;;;;;5032699;28;20206;-74
2022/10/13 01:50:28;;;;;;;0.00;0.00;;;8.60;99.90;;;;;;5032270;28;20218;-74
2022/10/13 01:52:56;;;;;;;0.00;0.00;;;8.50;99.90;;;;;;5032877;28;20213;-74
2022/10/13 01:55:24;;;;;;;0.00;0.00;;;8.40;99.90;;;;;;5032657;28;20260;-74
2022/10/13 01:57:51;;;;;;;0.00;0.00;;;8.40;99.90;;;;;;5032394;28;20199;-74
2022/10/13 02:00:22;;;;;;;0.00;0.00;;;8.30;99.90;;;;;;5032271;28;20226;-74
2022/10/13 02:03:01;;;;;;;0.00;0.00;;;8.30;99.90;;;;;;5032590;28;20269;-74
2022/10/13 02:05:37;;;;;;;0.00;0.00;;;8.20;99.90;;;;;;5033371;28;20198;-75
2022/10/13 02:08:10;;;;;;;0.00;0.00;;;8.20;99.90;;;;;;5036302;28;20267;-74
2022/10/13 02:10:46;;;;;;;0.00;0.00;;;8.10;99.90;;;;;;5036510;28;20571;-75
2022/10/13 02:13:16;;;;;;;0.00;0.00;;;8.10;99.90;;;;;;5036329;28;20256;-75
2022/10/13 02:19:00;;;;;;;0.00;0.00;;;8.00;99.90;;;;;;5808455;22;20297;-86
2022/10/13 02:21:30;;;;;;;0.00;0.00;;;7.90;99.90;;;;;;5056855;28;20636;-87
2022/10/13 02:23:59;;;;;;;0.00;0.00;;;7.90;99.90;;;;;;5058598;28;20205;-88
2022/10/13 02:26:27;;;;;;;0.00;0.00;;;8.00;99.90;;;;;;5059095;28;20211;-87
2022/10/13 02:28:55;;;;;;;0.00;0.00;;;8.00;99.90;;;;;;5059172;28;20194;-87
2022/10/13 02:31:23;;;;;;;0.00;0.00;;;8.00;99.90;;;;;;5060462;28;20225;-87
2022/10/13 02:33:50;;;;;;;0.00;0.00;;;8.00;99.90;;;;;;5060419;28;20202;-87
2022/10/13 02:36:18;;;;;;;0.00;0.00;;;8.00;99.90;;;;;;5060220;28;20283;-87
2022/10/13 02:38:47;;;;;;;0.00;0.00;;;7.90;99.90;;;;;;5061211;28;20641;-88
2022/10/13 02:41:15;;;;;;;0.00;0.00;;;7.90;99.90;;;;;;5060254;28;20221;-86
2022/10/13 02:43:43;;;;;;;0.00;0.00;;;8.00;99.90;;;;;;5060971;28;20209;-88
2022/10/13 02:46:11;;;;;;;0.00;0.00;;;8.00;99.90;;;;;;5064573;28;20213;-88
2022/10/13 02:48:39;;;;;;;0.00;0.00;;;8.00;99.90;;;;;;5065120;28;20210;-88
2022/10/13 02:51:07;;;;;;;0.00;0.00;;;8.10;99.90;;;;;;5079171;28;20212;-86
2022/10/13 02:53:35;;;;;;;0.00;0.00;;;8.20;99.90;;;;;;5075442;28;20265;-86
2022/10/13 02:56:05;;;;;;;0.00;0.00;;;8.30;99.90;;;;;;5066133;28;20200;-88
2022/10/13 02:58:33;;;;;;;0.00;0.00;;;8.30;99.90;;;;;;5060477;28;20242;-87
2022/10/13 03:01:06;;;;;;;0.00;0.00;;;8.40;99.90;;;;;;5059608;28;20231;-88
2022/10/13 03:03:37;;;;;;;0.00;0.00;;;8.50;99.90;;;;;;5059939;28;20243;-88
2022/10/13 03:06:05;;;;;;;0.00;0.00;;;8.60;99.90;;;;;;5060314;28;20197;-88
2022/10/13 03:08:34;;;;;;;0.00;0.00;;;8.70;99.90;;;;;;5059179;28;20208;-88
2022/10/13 03:11:03;;;;;;;0.00;0.00;;;8.80;99.90;;;;;;5058810;28;20218;-88
2022/10/13 03:13:31;;;;;;;0.00;0.00;;;8.90;99.90;;;;;;5058842;28;20293;-88
2022/10/13 03:15:59;;;;;;;0.00;0.00;;;8.90;99.90;;;;;;5058019;28;20208;-88
2022/10/13 03:18:28;;;;;;;0.00;0.00;;;9.00;99.90;;;;;;5058945;28;20210;-88
2022/10/13 03:20:57;;;;;;;0.00;0.00;;;9.10;99.90;;;;;;5058584;28;20563;-88
2022/10/13 03:23:25;;;;;;;0.00;0.00;;;9.20;99.90;;;;;;5058458;28;20210;-88
2022/10/13 03:25:54;;;;;;;0.00;0.00;;;9.20;99.90;;;;;;5058956;28;20198;-88
2022/10/13 03:28:23;;;;;;;0.00;0.00;;;9.30;99.90;;;;;;5058512;28;20644;-88
2022/10/13 03:30:59;;;;;;;0.00;0.00;;;9.30;99.90;;;;;;5058405;28;20267;-88
2022/10/13 03:33:27;;;;;;;0.00;0.00;;;9.30;99.90;;;;;;5058534;28;20212;-87
2022/10/13 03:35:58;;;;;;;0.00;0.00;;;9.20;99.90;;;;;;5058341;28;20208;-88
2022/10/13 03:38:26;;;;;;;0.00;0.00;;;9.20;99.90;;;;;;5058575;28;20194;-88
2022/10/13 03:40:54;;;;;;;0.00;0.00;;;9.10;99.90;;;;;;5058030;28;20253;-88
2022/10/13 03:43:24;;;;;;;0.00;0.00;;;9.10;99.90;;;;;;5058479;28;20203;-88
2022/10/13 03:45:56;;;;;;;0.00;0.00;;;9.10;99.90;;;;;;5057876;28;20204;-87
2022/10/13 03:48:24;;;;;;;0.00;0.00;;;9.00;99.90;;;;;;5058476;28;20254;-88
2022/10/13 03:50:53;;;;;;;0.00;0.00;;;8.90;99.90;;;;;;5059098;28;20226;-88
2022/10/13 03:53:21;;;;;;;0.00;0.00;;;8.90;99.90;;;;;;5067914;28;20220;-89
2022/10/13 03:55:50;;;;;;;0.00;0.00;;;8.90;99.90;;;;;;5072924;28;20198;-88
2022/10/13 03:58:18;;;;;;;0.00;0.00;;;8.80;99.90;;;;;;5057996;28;20676;-87
2022/10/13 04:00:47;;;;;;;0.00;0.00;;;8.80;99.90;;;;;;5058432;28;20229;-88
2022/10/13 04:03:16;;;;;;;0.00;0.00;;;8.80;99.90;;;;;;5058292;28;20244;-88
2022/10/13 04:05:44;;;;;;;0.00;0.00;;;8.80;99.90;;;;;;5058216;28;20202;-88
2022/10/13 04:08:13;;;;;;;0.00;0.00;;;8.80;99.90;;;;;;5058774;28;20215;-88
2022/10/13 04:10:47;;;;;;;0.00;0.00;;;8.80;99.90;;;;;;5058365;28;20229;-88
2022/10/13 04:13:15;;;;;;;0.00;0.00;;;8.90;99.90;;;;;;5057812;28;20194;-88
2022/10/13 04:15:45;;;;;;;0.00;0.00;;;8.90;99.90;;;;;;5057844;28;20563;-88
2022/10/13 04:18:14;;;;;;;0.00;0.00;;;9.00;99.90;;;;;;5058294;28;20288;-88
2022/10/13 04:20:42;;;;;;;0.00;0.00;;;9.00;99.90;;;;;;5058120;28;20240;-88
2022/10/13 04:23:10;;;;;;;0.00;0.00;;;9.00;99.90;;;;;;5058484;28;20209;-88
2022/10/13 04:25:39;;;;;;;0.00;0.00;;;9.10;99.90;;;;;;5058677;28;20201;-88
2022/10/13 04:28:07;;;;;;;0.00;0.00;;;9.10;99.90;;;;;;5057348;28;20208;-88
2022/10/13 04:30:35;;;;;;;0.00;0.00;;;9.10;99.90;;;;;;5059288;28;20256;-88
2022/10/13 04:33:04;;;;;;;0.00;0.00;;;9.20;99.90;;;;;;5058292;28;20207;-88
2022/10/13 04:35:33;;;;;;;0.00;0.00;;;9.20;99.90;;;;;;5058244;28;20198;-88
2022/10/13 04:38:01;;;;;;;0.00;0.00;;;9.20;99.90;;;;;;5061108;28;20216;-88
2022/10/13 04:40:29;;;;;;;0.00;0.00;;;9.20;99.90;;;;;;5062788;28;20588;-88
2022/10/13 04:42:57;;;;;;;0.00;0.00;;;9.20;99.90;;;;;;5060197;28;20217;-88
2022/10/13 04:45:25;;;;;;;0.00;0.00;;;9.20;99.90;;;;;;5072315;28;20216;-86
2022/10/13 04:47:53;;;;;;;0.00;0.00;;;9.10;99.90;;;;;;5073102;28;20205;-88
2022/10/13 04:50:21;;;;;;;0.00;0.00;;;9.10;99.90;;;;;;5072539;28;20241;-88
2022/10/13 04:52:50;;;;;;;0.00;0.00;;;9.00;99.90;;;;;;5070809;28;20197;-88
2022/10/13 04:55:18;;;;;;;0.00;0.00;;;9.00;99.90;;;;;;5059285;28;20644;-87
2022/10/13 04:57:46;;;;;;;0.00;0.00;;;9.00;99.90;;;;;;5070976;28;20186;-88
2022/10/13 05:00:14;;;;;;;0.00;0.00;;;8.90;99.90;;;;;;5067131;28;20210;-89
2022/10/13 05:02:43;;;;;;;0.00;0.00;;;8.90;99.90;;;;;;5042113;28;20229;-89
2022/10/13 05:05:11;;;;;;;0.00;0.00;;;8.90;99.90;;;;;;5062240;28;20206;-88
2022/10/13 05:07:38;;;;;;;0.00;0.00;;;8.90;99.90;;;;;;5057412;28;20544;-89
2022/10/13 05:10:08;;;;;;;0.00;0.00;;;8.80;99.90;;;;;;5057578;28;20770;-89
2022/10/13 05:12:36;;;;;;;0.00;0.00;;;8.80;99.90;;;;;;5058228;28;20207;-89
2022/10/13 05:15:05;;;;;;;0.00;0.00;;;8.80;99.90;;;;;;5057119;28;20737;-89
2022/10/13 05:17:33;;;;;;;0.00;0.00;;;8.80;99.90;;;;;;5057397;28;20653;-88
2022/10/13 05:20:02;;;;;;;0.00;0.00;;;8.80;99.90;;;;;;5057012;28;20769;-88
2022/10/13 05:22:30;;;;;;;0.00;0.00;;;8.80;99.90;;;;;;5057397;28;20221;-88
2022/10/13 05:24:58;;;;;;;0.00;0.00;;;8.80;99.90;;;;;;5057434;28;20217;-88
2022/10/13 05:27:30;;;;;;;0.00;0.00;;;8.80;99.90;;;;;;5057355;28;20202;-88
2022/10/13 05:29:58;;;;;;;0.00;0.00;;;8.80;99.90;;;;;;5057816;28;20228;-87
2022/10/13 05:32:26;;;;;;;0.00;0.00;;;8.80;99.90;;;;;;5058160;28;20200;-88
2022/10/13 05:34:54;;;;;;;0.00;0.00;;;8.90;99.90;;;;;;5058083;28;20217;-88
2022/10/13 05:37:22;;;;;;;0.00;0.00;;;9.00;99.90;;;;;;5058803;28;20194;-88
2022/10/13 05:39:50;;;;;;;0.00;0.00;;;9.00;99.90;;;;;;5057540;28;20237;-87
2022/10/13 05:42:18;;;;;;;0.00;0.00;;;9.00;99.90;;;;;;5061146;28;20271;-88
2022/10/13 05:44:47;;;;;;;0.00;0.00;;;9.00;99.90;;;;;;5061973;28;20261;-87
2022/10/13 05:47:15;;;;;;;0.00;0.00;;;9.10;99.90;;;;;;5061745;28;20201;-88
2022/10/13 05:49:43;;;;;;;0.00;0.00;;;9.10;99.90;;;;;;5063872;28;20236;-88
2022/10/13 05:52:12;;;;;;;0.00;0.00;;;9.10;99.90;;;;;;5077949;28;20193;-89
2022/10/13 05:54:45;;;;;;;0.00;0.00;;;9.10;99.90;;;;;;5081937;28;20201;-88
2022/10/13 05:57:16;;;;;;;0.00;0.00;;;9.20;99.90;;;;;;5082012;28;20198;-88
2022/10/13 05:59:50;;;;;;;0.00;0.00;;;9.30;99.90;;;;;;5081759;28;20214;-89
2022/10/13 06:02:21;;;;;;;0.00;0.00;;;9.30;99.90;;;;;;5081795;28;20212;-89
2022/10/13 06:04:51;;;;;;;0.00;0.00;;;9.30;99.90;;;;;;5063500;28;20664;-89
2022/10/13 06:07:20;;;;;;;0.00;0.00;;;9.30;99.90;;;;;;5062162;28;20264;-89
2022/10/13 06:09:52;;;;;;;0.00;0.00;;;9.30;99.90;;;;;;5061511;28;20275;-88
2022/10/13 06:12:20;;;;;;;0.00;0.00;;;9.30;99.90;;;;;;5061222;28;20205;-89
2022/10/13 06:14:50;;;;;;;0.00;0.00;;;9.40;99.90;;;;;;5061181;28;20212;-88
2022/10/13 06:17:17;;;;;;;0.00;0.00;;;9.40;99.90;;;;;;5060760;28;20649;-89
2022/10/13 06:19:46;;;;;;;0.00;0.00;;;9.40;99.90;;;;;;5061687;28;20220;-88
2022/10/13 06:22:14;;;;;;;0.00;0.00;;;9.40;99.90;;;;;;5062164;28;20248;-89
2022/10/13 06:24:41;;;;;;;0.00;0.00;;;9.50;99.90;;;;;;5060782;28;20625;-88
2022/10/13 06:27:10;;;;;;;0.00;0.00;;;9.50;99.90;;;;;;5061788;28;20197;-88
2022/10/13 06:29:38;;;;;;;0.00;0.00;;;9.60;99.90;;;;;;5061344;28;20225;-88
2022/10/13 06:32:07;;;;;;;0.00;0.00;;;9.60;99.90;;;;;;5063468;28;20206;-89
2022/10/13 06:34:35;;;;;;;0.00;0.00;;;9.80;99.90;;;;;;5063097;28;20223;-88
2022/10/13 06:37:03;;;;;;;0.00;0.00;;;9.80;99.90;;;;;;5061407;28;20735;-89
2022/10/13 06:39:31;;;;;;;0.00;0.00;;;9.90;99.90;;;;;;5004659;28;20324;-88
2022/10/13 06:41:59;;;;;;;0.00;0.00;;;9.90;99.90;;;;;;5046396;28;20202;-89
2022/10/13 06:44:28;;;;;;;0.00;0.00;;;10.00;99.90;;;;;;5041630;28;20716;-89
2022/10/13 06:46:56;;;;;;;0.00;0.00;;;10.10;99.90;;;;;;5042096;28;20206;-89
2022/10/13 06:49:25;;;;;;;0.00;0.00;;;10.10;99.90;;;;;;5041527;28;20522;-88
2022/10/13 06:51:55;;;;;;;0.00;0.00;;;10.10;99.90;;;;;;5040626;28;20456;-88
2022/10/13 06:54:25;;;;;;;0.00;0.00;;;10.10;99.90;;;;;;5040233;28;20201;-88
2022/10/13 06:56:53;;;;;;;0.00;0.00;;;10.20;99.90;;;;;;5040766;28;20198;-87
2022/10/13 06:59:21;;;;;;;0.00;0.00;;;10.20;99.90;;;;;;5039778;28;20230;-89
2022/10/13 07:01:50;;;;;;;0.00;0.00;;;10.30;99.90;;;;;;5041447;28;20541;-88
2022/10/13 07:04:22;;;;;;;0.00;0.00;;;10.30;99.90;;;;;;5046516;28;20321;-89
2022/10/13 07:06:56;;;;;;;0.00;0.00;;;10.30;99.90;;;;;;5055704;28;20202;-89
2022/10/13 07:09:24;;;;;;;0.00;0.00;;;10.20;99.90;;;;;;5040810;28;20473;-89
2022/10/13 07:11:53;;;;;;;0.00;0.00;;;10.20;99.90;;;;;;5041176;28;20203;-88
2022/10/13 07:14:24;;;;;;;0.00;0.00;;;10.30;99.90;;;;;;5041689;28;20449;-88
2022/10/13 07:16:52;;;;;;;0.00;0.00;;;10.40;99.90;;;;;;5040456;28;20449;-89
2022/10/13 07:19:20;;;;;;;0.00;0.00;;;10.50;99.90;;;;;;5039847;28;20457;-88
2022/10/13 07:21:48;;;;;;;0.00;0.00;;;10.50;99.90;;;;;;5040383;28;20469;-88
2022/10/13 07:24:19;;;;;;;0.00;0.00;;;10.70;99.90;;;;;;5040426;28;20544;-88
2022/10/13 07:26:47;;;;;;;0.00;0.00;;;10.80;99.90;;;;;;5039857;28;20210;-88
2022/10/13 07:29:16;;;;;;;0.00;0.00;;;10.90;99.90;;;;;;5039836;28;20544;-88
2022/10/13 07:31:45;;;;;;;0.00;0.00;;;11.00;99.90;;;;;;5039696;28;20820;-88
2022/10/13 07:34:14;;;;;;;0.00;0.00;;;11.00;99.90;;;;;;5040669;28;20457;-88
2022/10/13 07:40:27;;;;;;;0.00;0.00;;;11.10;99.90;;;;;;5040840;28;20432;-89
2022/10/13 07:42:56;;;;;;;0.00;0.00;;;11.30;99.90;;;;;;5040125;28;20849;-88
2022/10/13 07:45:26;;;;;;;0.00;0.00;;;11.30;99.90;;;;;;5041377;28;20441;-88
2022/10/13 07:48:07;;;;;;;0.00;0.00;;;11.40;99.90;;;;;;5041368;28;20563;-88
2022/10/13 07:50:39;;;;;;;0.00;0.00;;;11.40;99.90;;;;;;5041538;28;20449;-89
2022/10/13 07:53:11;;;;;;;0.00;0.00;;;11.40;99.90;;;;;;5040826;28;20464;-88
2022/10/13 07:55:48;;;;;;;0.00;0.00;;;11.40;99.90;;;;;;5042002;28;20480;-87
2022/10/13 07:58:18;;;;;;;0.00;0.00;;;11.40;99.90;;;;;;5042332;28;20456;-87
2022/10/13 08:00:56;;;;;;;0.00;0.00;;;11.50;99.90;;;;;;5040855;28;20465;-87
2022/10/13 08:03:27;;;;;;;0.00;0.00;;;11.60;99.90;;;;;;5039409;28;20504;-86
2022/10/13 08:06:08;;;;;;;0.00;0.00;;;11.70;99.90;;;;;;5041221;28;20860;-87
2022/10/13 08:08:53;;;;;;;0.00;0.00;;;11.70;99.90;;;;;;5048393;28;20422;-88
2022/10/13 08:11:22;;;;;;;0.00;0.00;;;11.70;99.90;;;;;;5054894;28;20955;-87
2022/10/13 08:13:52;;;;;;;0.00;0.00;;;11.80;99.90;;;;;;5040667;28;20916;-87
2022/10/13 08:16:23;;;;;;;0.00;0.00;;;11.80;99.90;;;;;;5040371;28;20453;-87
2022/10/13 08:18:56;;;;;;;0.00;0.00;;;11.90;99.90;;;;;;5040490;28;20966;-87
2022/10/13 08:21:30;;;;;;;0.00;0.00;;;11.90;99.90;;;;;;5039007;28;20514;-87
2022/10/13 08:24:22;;;;;;;0.00;0.00;;;12.00;99.90;;;;;;5039695;28;20485;-87
2022/10/13 08:27:08;;;;;;;0.00;0.00;;;12.00;99.90;;;;;;5039384;28;20463;-89
2022/10/13 08:29:41;;;;;;;0.00;0.00;;;12.00;99.90;;;;;;5040779;28;20468;-89
2022/10/13 08:35:07;;;;;;;0.00;0.00;;;12.20;99.90;;;;;;5040053;28;20449;-88
2022/10/13 08:37:46;;;;;;;0.00;0.00;;;12.40;99.90;;;;;;5048088;28;20477;-89
2022/10/13 08:40:29;;;;;;;0.00;0.00;;;12.50;99.90;;;;;;5017795;28;20468;-88
2022/10/13 08:43:02;;;;;;;0.00;0.00;;;12.60;99.90;;;;;;5017298;28;20473;-87
2022/10/13 08:45:37;;;;;;;0.00;0.00;;;12.70;99.90;;;;;;5018495;28;20450;-87
2022/10/13 08:48:21;;;;;;;0.00;0.00;;;12.70;99.90;;;;;;5018226;28;20457;-87
2022/10/13 08:50:58;;;;;;;0.00;0.00;;;12.70;99.90;;;;;;5017286;28;20493;-87
2022/10/13 08:53:58;;;;;;;0.00;0.00;;;12.70;99.90;;;;;;5017228;28;20516;-88
2022/10/13 08:56:33;;;;;;;0.00;0.00;;;12.70;99.90;;;;;;5017366;28;20937;-87
2022/10/13 09:12:52;;;;;;;0.00;0.00;;;12.70;99.90;;;;;;5020631;28;20436;-87
2022/10/13 09:16:36;;;;;;;0.00;0.00;;;12.80;99.90;;;;;;5026303;28;20463;-88
2022/10/13 09:19:24;;;;;;;0.00;0.00;;;12.90;99.90;;;;;;5038043;28;20457;-89
2022/10/13 09:25:57;;;;;;;0.00;0.00;;;13.10;99.90;;;;;;4994235;28;20450;-86
2022/10/13 09:32:47;;;;;;;0.00;0.00;;;13.30;99.90;;;;;;4962760;28;20939;-88
2022/10/13 09:35:30;;;;;;;0.00;0.00;;;13.30;99.90;;;;;;4969414;28;20469;-87
2022/10/13 09:38:13;;;;;;;0.00;0.00;;;13.50;99.90;;;;;;5019018;28;20941;-88
2022/10/13 09:44:13;;;;;;;0.00;0.00;;;13.70;99.90;;;;;;5017315;28;20473;-88
2022/10/13 09:53:48;;;;;;;0.00;0.00;;;13.80;99.90;;;;;;4977291;28;20832;-89
2022/10/13 09:56:46;;;;;;;0.00;0.00;;;14.00;99.90;;;;;;4977121;28;20987;-87
2022/10/13 10:02:32;;;;;;;0.00;0.00;;;14.40;99.90;;;;;;5036111;28;20445;-89
2022/10/13 10:05:49;;;;;;;;;;;;;;;;;;;;;
2022/10/13 10:08:35;;;;;;;0.00;0.00;;;14.80;99.90;;;;;;5039676;28;20445;-89
2022/10/13 10:11:42;;;;;;;0.00;0.00;;;14.90;99.90;;;;;;5039532;28;20447;-88
2022/10/13 10:17:47;;;;;;;0.00;0.00;;;15.10;99.90;;;;;;4996063;28;20488;-88
2022/10/13 10:20:43;;;;;;;0.00;0.00;;;15.30;99.90;;;;;;5041078;28;20480;-89
2022/10/13 10:23:25;;;;;;;0.00;0.00;;;15.30;99.90;;;;;;5040463;28;20445;-90
2022/10/13 10:26:18;;;;;;;;;;;;;;;;;;;;;
2022/10/13 10:29:18;;;;;;;0.00;0.00;;;15.30;99.90;;;;;;5043875;28;20475;-88
2022/10/13 10:35:35;;;;;;;0.00;0.00;;;15.30;99.90;;;;;;5022547;28;20513;-89
2022/10/13 10:38:26;;;;;;;0.00;0.00;;;15.30;99.90;;;;;;5033780;28;20967;-88
2022/10/13 10:41:39;;;;;;;0.00;0.00;;;15.40;99.90;;;;;;5057607;28;20465;-89
2022/10/13 10:44:13;;;;;;;0.00;0.00;;;15.50;99.90;;;;;;5056602;28;20481;-89
2022/10/13 10:46:45;;;;;;;0.00;0.00;;;15.60;99.90;;;;;;5044350;28;20899;-89
2022/10/13 10:49:21;;;;;;;0.00;0.00;;;15.60;99.90;;;;;;5040859;28;20437;-89
2022/10/13 10:51:54;;;;;;;0.00;0.00;;;15.60;99.90;;;;;;5040278;28;20476;-88
2022/10/13 10:55:12;;;;;;;0.00;0.00;;;15.70;99.90;;;;;;5039450;28;20445;-88
2022/10/13 10:58:15;;;;;;;0.00;0.00;;;15.80;99.90;;;;;;5026575;28;20903;-89
2022/10/13 11:01:05;;;;;;;0.00;0.00;;;15.80;99.90;;;;;;5040629;28;20939;-87
2022/10/13 11:03:42;;;;;;;0.00;0.00;;;15.90;99.90;;;;;;5042346;28;20539;-88
2022/10/13 11:06:31;;;;;;;0.00;0.00;;;16.00;99.90;;;;;;5041925;28;20560;-88
2022/10/13 11:09:07;;;;;;;0.00;0.00;;;16.10;99.90;;;;;;5041941;28;20537;-88
2022/10/13 11:11:40;;;;;;;0.00;0.00;;;16.20;99.90;;;;;;5041729;28;20816;-89
2022/10/13 11:14:29;;;;;;;0.00;0.00;;;16.30;99.90;;;;;;5042395;28;20954;-89
2022/10/13 11:17:20;;;;;;;0.00;0.00;;;16.40;99.90;;;;;;5042382;28;20477;-88
2022/10/13 11:20:45;;;;;;;0.00;0.00;;;16.30;99.90;;;;;;5045210;28;20620;-87
2022/10/13 11:23:34;;;;;;;0.00;0.00;;;16.20;99.90;;;;;;5031762;28;20444;-88
2022/10/13 11:26:55;;;;;;;0.00;0.00;;;16.20;99.90;;;;;;5041330;28;20818;-88
2022/10/13 11:30:19;;;;;;;0.00;0.00;;;16.10;99.90;;;;;;4980062;28;20909;-86
2022/10/13 11:40:48;;;;;;;0.00;0.00;;;15.90;99.90;;;;;;4940051;29;20493;-88
2022/10/13 11:46:55;;;;;;;0.00;0.00;;;15.90;99.90;;;;;;4847514;29;20439;-88
2022/10/13 11:50:05;;;;;;;0.00;0.00;;;16.00;99.90;;;;;;4910828;28;20474;-88
2022/10/13 12:12:56;;;;;;;0.00;0.00;;;17.30;99.90;;;;;;4845686;29;20450;-89
2022/10/13 12:18:57;;;;;;;0.00;0.00;;;17.10;99.90;;;;;;4857054;29;20490;-88
2022/10/13 12:21:52;;;;;;;0.00;0.00;;;17.10;99.90;;;;;;4852256;29;20497;-88
2022/10/13 12:24:36;;;;;;;0.00;0.00;;;17.20;99.90;;;;;;4859309;29;20459;-89
2022/10/13 12:38:28;;;;;;;0.00;0.00;;;17.30;99.90;;;;;;4802424;29;20470;-88
2022/10/13 12:44:52;;;;;;;0.00;0.00;;;17.40;99.90;;;;;;4894374;29;20829;-88
2022/10/13 12:47:39;;;;;;;0.00;0.00;;;17.30;99.90;;;;;;4922256;29;20994;-88
2022/10/13 12:50:38;;;;;;;0.00;0.00;;;17.30;99.90;;;;;;4921828;29;20477;-87
2022/10/13 12:53:31;;;;;;;0.00;0.00;;;17.40;99.90;;;;;;4902103;29;20459;-89
2022/10/13 12:56:25;;;;;;;0.00;0.00;;;17.40;99.90;;;;;;4996338;28;20442;-89
2022/10/13 13:10:25;;;;;;;0.00;0.00;;;17.30;99.90;;;;;;4866201;29;20523;-88
2022/10/13 13:13:45;;;;;;;0.00;0.00;;;17.30;99.90;;;;;;4868324;29;20530;-87
2022/10/13 13:16:58;;;;;;;0.00;0.00;;;17.30;99.90;;;;;;4840165;29;20458;-86
2022/10/13 13:19:36;;;;;;;0.00;0.00;;;17.30;99.90;;;;;;4864124;29;20480;-88
2022/10/13 13:28:36;;;;;;;0.00;0.00;;;17.30;99.90;;;;;;5038608;28;20444;-85
2022/10/13 13:31:53;;;;;;;0.00;0.00;;;17.20;99.90;;;;;;5053447;28;20465;-88
2022/10/13 13:35:19;;;;;;;0.00;0.00;;;17.20;99.90;;;;;;5041983;28;20447;-87
2022/10/13 13:37:51;;;;;;;0.00;0.00;;;17.00;99.90;;;;;;5043994;28;20449;-87
2022/10/13 13:40:30;;;;;;;0.00;0.00;;;17.00;99.90;;;;;;5045412;28;20482;-87
2022/10/13 13:42:58;;;;;;;0.00;0.00;;;16.90;99.90;;;;;;5047526;28;20453;-87
2022/10/13 13:45:28;;;;;;;0.00;0.00;;;16.90;99.90;;;;;;5050498;28;20485;-87
2022/10/13 13:48:47;;;;;;;0.00;0.00;;;17.00;99.90;;;;;;5049865;28;20451;-89
2022/10/13 13:51:38;;;;;;;0.00;0.00;;;16.90;99.90;;;;;;4985931;28;20838;-87
2022/10/13 13:54:54;;;;;;;0.00;0.00;;;16.90;99.90;;;;;;5003995;28;20453;-86
2022/10/13 13:57:44;;;;;;;0.00;0.00;;;17.00;99.90;;;;;;5008128;28;20522;-87
2022/10/13 14:00:53;;;;;;;0.00;0.00;;;16.90;99.90;;;;;;5012504;28;20563;-89
2022/10/13 14:03:28;;;;;;;0.00;0.00;;;16.90;99.90;;;;;;4965788;28;20889;-88
2022/10/13 14:05:59;;;;;;;0.00;0.00;;;16.90;99.90;;;;;;5012151;28;20480;-88
2022/10/13 14:08:40;;;;;;;0.00;0.00;;;17.00;99.90;;;;;;5002644;28;20481;-87
2022/10/13 14:14:40;;;;;;;0.00;0.00;;;17.00;99.90;;;;;;5001796;28;20473;-88
2022/10/13 14:17:08;;;;;;;0.00;0.00;;;17.00;99.90;;;;;;5044306;28;20446;-87
2022/10/13 14:19:42;;;;;;;0.00;0.00;;;17.00;99.90;;;;;;5042336;28;20461;-86
2022/10/13 14:22:12;;;;;;;0.00;0.00;;;17.00;99.90;;;;;;5042625;28;20449;-88
2022/10/13 14:24:44;;;;;;;0.00;0.00;;;17.10;99.90;;;;;;5042992;28;20453;-88
2022/10/13 14:27:16;;;;;;;0.00;0.00;;;17.10;99.90;;;;;;5042678;28;20530;-88
2022/10/13 14:29:50;;;;;;;0.00;0.00;;;17.10;99.90;;;;;;5043713;28;20620;-88
2022/10/13 14:32:23;;;;;;;0.00;0.00;;;17.10;99.90;;;;;;5051172;28;20477;-88
2022/10/13 14:35:02;;;;;;;0.00;0.00;;;17.20;99.90;;;;;;5054462;28;20458;-88
2022/10/13 14:37:36;;;;;;;0.00;0.00;;;17.10;99.90;;;;;;5043132;28;20546;-87
2022/10/13 14:40:09;;;;;;;0.00;0.00;;;17.10;99.90;;;;;;5042677;28;20483;-88
2022/10/13 14:42:41;;;;;;;0.00;0.00;;;17.10;99.90;;;;;;5042487;28;20483;-89
2022/10/13 14:48:26;;;;;;;0.00;0.00;;;17.10;99.90;;;;;;5033731;28;20964;-88
2022/10/13 14:50:59;;;;;;;0.00;0.00;;;17.10;99.90;;;;;;5040800;28;20481;-89
2022/10/13 14:53:34;;;;;;;0.00;0.00;;;17.10;99.90;;;;;;5041888;28;20449;-88
2022/10/13 14:56:28;;;;;;;0.00;0.00;;;17.10;99.90;;;;;;5043533;28;20469;-88
2022/10/13 15:09:15;;;;;;;0.00;0.00;;;17.00;99.90;;;;;;4903312;28;20496;-86
2022/10/13 15:12:13;;;;;;;0.00;0.00;;;16.90;99.90;;;;;;4978783;28;20944;-89
2022/10/13 15:15:09;;;;;;;0.00;0.00;;;17.00;99.90;;;;;;5020225;28;20447;-88
2022/10/13 15:33:30;;;;;;;;;;;;;;;;;;;;;
2022/10/13 15:40:48;;;;;;;0.00;0.00;;;16.70;99.90;;;;;;4954206;29;20463;-88
2022/10/13 15:51:29;;;;;;;0.00;0.00;;;16.50;99.90;;;;;;4946795;29;20481;-88
2022/10/13 15:54:50;;;;;;;0.00;0.00;;;16.50;99.90;;;;;;4885418;29;20473;-89
2022/10/13 16:01:32;;;;;;;0.00;0.00;;;16.50;99.90;;;;;;4844929;29;20470;-89
2022/10/13 16:08:45;;;;;;;0.00;0.00;;;16.30;99.90;;;;;;4791705;29;20505;-88
2022/10/13 16:11:33;;;;;;;0.00;0.00;;;16.20;99.90;;;;;;5044695;22;20477;-74
2022/10/13 16:14:02;;;;;;;0.00;0.00;;;16.20;99.90;;;;;;5034699;28;20444;-74
2022/10/13 16:16:30;;;;;;;0.00;0.00;;;16.20;99.90;;;;;;5033926;28;20444;-74
2022/10/13 16:18:58;;;;;;;0.00;0.00;;;16.20;99.90;;;;;;5034099;28;20491;-75
2022/10/13 16:21:26;;;;;;;0.00;0.00;;;16.30;99.90;;;;;;5034126;28;20454;-74
2022/10/13 16:23:54;;;;;;;0.00;0.00;;;16.30;99.90;;;;;;5033558;28;21064;-74
2022/10/13 16:26:22;;;;;;;0.00;0.00;;;16.30;99.90;;;;;;5033826;28;21015;-75
2022/10/13 16:28:53;;;;;;;0.00;0.00;;;16.30;99.90;;;;;;5033870;28;20492;-74
2022/10/13 16:31:22;;;;;;;0.00;0.00;;;16.20;99.90;;;;;;5034200;28;20500;-74
2022/10/13 16:33:50;;;;;;;0.00;0.00;;;16.30;99.90;;;;;;5033961;28;20454;-74